createdAt,value
2018-11-14T00:00:53.431Z,96369.22
2018-11-14T00:03:23.635Z,96375.06
2018-11-14T00:05:54.083Z,96370.53
2018-11-14T00:08:24.190Z,96368.98
2018-11-14T00:10:54.227Z,96372.40
2018-11-14T00:13:24.422Z,96373.61
2018-11-14T00:15:54.488Z,96361.09
2018-11-14T00:18:24.515Z,96362.20
2018-11-14T00:20:54.398Z,96356.05
2018-11-14T00:23:24.375Z,96354.06
2018-11-14T00:25:54.555Z,96359.20
2018-11-14T00:28:24.468Z,96353.77
2018-11-14T00:30:54.590Z,96352.95
2018-11-14T00:33:24.635Z,96354.94
2018-11-14T00:35:54.670Z,96345.92
2018-11-14T00:38:24.718Z,96345.81
2018-11-14T00:40:54.826Z,96345.11
2018-11-14T00:43:24.723Z,96339.94
2018-11-14T00:45:54.804Z,96340.17
2018-11-14T00:48:24.788Z,96332.33
2018-11-14T00:50:54.785Z,96334.16
2018-11-14T00:53:24.827Z,96342.20
2018-11-14T00:55:54.946Z,96341.09
2018-11-14T00:58:25.039Z,96337.81
2018-11-14T01:00:54.940Z,96346.73
2018-11-14T01:03:25.240Z,96351.16
2018-11-14T01:05:55.570Z,96347.54
2018-11-14T01:08:26.105Z,96344.33
2018-11-14T01:10:56.148Z,96339.73
2018-11-14T01:13:26.505Z,96339.70
2018-11-14T01:15:56.482Z,96332.23
2018-11-14T01:18:26.467Z,96329.90
2018-11-14T01:20:56.550Z,96323.48
2018-11-14T01:23:27.470Z,96316.88
2018-11-14T01:25:57.539Z,96309.05
2018-11-14T01:28:27.478Z,96308.95
2018-11-14T01:30:57.577Z,96304.66
2018-11-14T01:33:28.427Z,96303.34
2018-11-14T01:35:58.682Z,96294.41
2018-11-14T01:38:28.406Z,96299.34
2018-11-14T01:40:58.443Z,96292.95
2018-11-14T01:43:29.006Z,96289.44
2018-11-14T01:45:58.989Z,96290.30
2018-11-14T01:48:29.047Z,96287.48
2018-11-14T01:50:59.063Z,96292.91
2018-11-14T01:53:29.668Z,96285.65
2018-11-14T01:55:59.687Z,96294.30
2018-11-14T01:58:29.788Z,96296.64
2018-11-14T02:00:59.778Z,96290.02
2018-11-14T02:03:30.277Z,96286.92
2018-11-14T02:06:00.507Z,96291.20
2018-11-14T02:08:30.788Z,96288.17
2018-11-14T02:11:00.919Z,96282.84
2018-11-14T02:13:31.209Z,96279.39
2018-11-14T02:16:01.160Z,96282.86
2018-11-14T02:18:31.161Z,96283.45
2018-11-14T02:21:01.226Z,96276.06
2018-11-14T02:23:32.470Z,96279.60
2018-11-14T02:26:02.446Z,96293.67
2018-11-14T02:28:32.580Z,96288.80
2018-11-14T02:31:02.664Z,96291.98
2018-11-14T02:33:33.590Z,96290.44
2018-11-14T02:36:03.593Z,96286.82
2018-11-14T02:38:33.506Z,96279.03
2018-11-14T02:41:03.515Z,96280.73
2018-11-14T02:43:34.018Z,96278.45
2018-11-14T02:46:03.944Z,96271.69
2018-11-14T02:48:34.015Z,96257.22
2018-11-14T02:51:14.671Z,96259.92
2018-11-14T02:53:45.370Z,96251.83
2018-11-14T02:56:15.246Z,96249.52
2018-11-14T02:58:45.216Z,96247.50
2018-11-14T03:01:15.202Z,96254.08
2018-11-14T03:03:46.250Z,96243.44
2018-11-14T03:06:16.556Z,96242.42
2018-11-14T03:08:46.911Z,96243.28
2018-11-14T03:11:16.907Z,96236.21
2018-11-14T03:13:47.931Z,96246.75
2018-11-14T03:16:17.897Z,96248.05
2018-11-14T03:18:47.932Z,96246.77
2018-11-14T03:21:18.011Z,96253.15
2018-11-14T03:23:47.992Z,96250.83
2018-11-14T03:26:18.008Z,96249.08
2018-11-14T03:28:47.991Z,96249.31
2018-11-14T03:31:18.044Z,96247.92
2018-11-14T03:33:48.147Z,96248.85
2018-11-14T03:36:19.297Z,96246.68
2018-11-14T03:38:49.781Z,96243.36
2018-11-14T03:41:19.858Z,96242.58
2018-11-14T03:43:50.705Z,96240.49
2018-11-14T03:46:20.702Z,96245.75
2018-11-14T03:48:50.703Z,96242.44
2018-11-14T03:51:20.689Z,96236.28
2018-11-14T03:53:50.980Z,96230.67
2018-11-14T03:56:20.809Z,96232.83
2018-11-14T03:58:50.801Z,96239.52
2018-11-14T04:01:20.889Z,96238.02
2018-11-14T04:03:50.778Z,96236.97
2018-11-14T04:06:21.088Z,96240.48
2018-11-14T04:08:51.123Z,96235.71
2018-11-14T04:11:21.034Z,96242.46
2018-11-14T04:13:51.986Z,96249.77
2018-11-14T04:16:21.970Z,96248.39
2018-11-14T04:18:52.033Z,96253.36
2018-11-14T04:21:22.204Z,96255.66
2018-11-14T04:23:52.911Z,96253.43
2018-11-14T04:26:22.807Z,96197.52
2018-11-14T04:28:52.724Z,96256.05
2018-11-14T04:31:22.796Z,96248.84
2018-11-14T04:33:52.868Z,96247.59
2018-11-14T04:36:22.926Z,96247.08
2018-11-14T04:38:53.042Z,96239.14
2018-11-14T04:41:23.064Z,96248.72
2018-11-14T04:43:53.784Z,96250.29
2018-11-14T04:46:23.894Z,96245.90
2018-11-14T04:48:54.015Z,96253.48
2018-11-14T04:51:23.955Z,95979.55
2018-11-14T04:53:54.938Z,96246.53
2018-11-14T04:56:24.992Z,96245.48
2018-11-14T04:58:55.077Z,96245.09
2018-11-14T05:01:24.980Z,96242.73
2018-11-14T05:03:55.424Z,96242.44
2018-11-14T05:06:25.529Z,96250.89
2018-11-14T05:08:56.078Z,96242.84
2018-11-14T05:11:26.065Z,96235.81
2018-11-14T05:13:56.371Z,96236.12
2018-11-14T05:16:26.447Z,96237.47
2018-11-14T05:18:56.529Z,96248.77
2018-11-14T05:21:26.618Z,96253.17
2018-11-14T05:23:57.832Z,96275.52
2018-11-14T05:26:27.922Z,96261.81
2018-11-14T05:28:57.930Z,96272.25
2018-11-14T05:31:27.930Z,96277.06
2018-11-14T05:33:58.591Z,96275.25
2018-11-14T05:36:28.637Z,96276.97
2018-11-14T05:38:58.663Z,96273.27
2018-11-14T05:41:28.679Z,96266.66
2018-11-14T05:43:59.343Z,96276.20
2018-11-14T05:46:29.320Z,96267.54
2018-11-14T05:48:59.367Z,96265.55
2018-11-14T05:51:29.401Z,96266.28
2018-11-14T05:54:00.137Z,96265.06
2018-11-14T05:56:30.441Z,96270.83
2018-11-14T05:59:00.505Z,96266.07
2018-11-14T06:01:30.481Z,96276.30
2018-11-14T06:04:01.322Z,96277.05
2018-11-14T06:06:31.572Z,96276.73
2018-11-14T06:09:01.748Z,96284.88
2018-11-14T06:11:31.806Z,96277.59
2018-11-14T06:14:02.778Z,96275.06
2018-11-14T06:16:36.700Z,96279.31
2018-11-14T06:19:06.692Z,96270.02
2018-11-14T06:21:36.626Z,96268.48
2018-11-14T06:24:07.486Z,96263.16
2018-11-14T06:26:37.543Z,96269.95
2018-11-14T06:29:07.454Z,96271.02
2018-11-14T06:31:37.497Z,96261.84
2018-11-14T06:34:08.332Z,96259.42
2018-11-14T06:36:38.377Z,96260.19
2018-11-14T06:39:12.788Z,96012.88
2018-11-14T06:41:42.917Z,96255.58
2018-11-14T06:44:13.545Z,96251.58
2018-11-14T06:46:43.648Z,96268.75
2018-11-14T06:49:13.818Z,96263.56
2018-11-14T06:51:43.833Z,96266.61
2018-11-14T06:54:15.394Z,96266.94
2018-11-14T06:56:45.419Z,96262.55
2018-11-14T06:59:15.536Z,96258.07
2018-11-14T07:01:45.531Z,96257.42
2018-11-14T07:04:15.810Z,96258.66
2018-11-14T07:06:46.244Z,96255.94
2018-11-14T07:09:16.503Z,96251.93
2018-11-14T07:11:46.644Z,96258.99
2018-11-14T07:14:17.127Z,96257.34
2018-11-14T07:16:47.177Z,96252.17
2018-11-14T07:19:17.175Z,96247.49
2018-11-14T07:21:47.136Z,96245.23
2018-11-14T07:24:18.264Z,96245.95
2018-11-14T07:26:48.185Z,96249.70
2018-11-14T07:29:18.151Z,96248.63
2018-11-14T07:31:48.189Z,96251.11
2018-11-14T07:34:18.228Z,96238.05
2018-11-14T07:36:48.426Z,96234.56
2018-11-14T07:39:18.451Z,96249.66
2018-11-14T07:41:48.482Z,96228.59
2018-11-14T07:44:18.540Z,96238.98
2018-11-14T07:46:48.469Z,96231.25
2018-11-14T07:49:22.926Z,96221.05
2018-11-14T07:51:57.000Z,96217.47
2018-11-14T07:54:27.529Z,96221.85
2018-11-14T07:56:59.446Z,96214.39
2018-11-14T07:59:33.535Z,96208.24
2018-11-14T08:02:03.625Z,96198.34
2018-11-14T08:04:38.594Z,96195.90
2018-11-14T08:07:08.867Z,96201.84
2018-11-14T08:09:39.159Z,96202.50
2018-11-14T08:12:09.277Z,96199.90
2018-11-14T08:14:40.282Z,96199.36
2018-11-14T08:17:10.306Z,96204.05
2018-11-14T08:19:40.715Z,96204.19
2018-11-14T08:22:10.995Z,96198.02
2018-11-14T08:24:41.753Z,96195.33
2018-11-14T08:27:11.951Z,96190.75
2018-11-14T08:29:42.145Z,96186.70
2018-11-14T08:32:12.223Z,96177.06
2018-11-14T08:34:43.297Z,96169.21
2018-11-14T08:37:13.359Z,96163.48
2018-11-14T08:39:43.429Z,96160.37
2018-11-14T08:42:13.512Z,96155.48
2018-11-14T08:44:43.620Z,96155.88
2018-11-14T08:47:13.789Z,96150.33
2018-11-14T08:49:43.753Z,96136.93
2018-11-14T08:52:13.924Z,96127.64
2018-11-14T08:54:44.699Z,96122.55
2018-11-14T08:57:15.866Z,96120.06
2018-11-14T08:59:45.965Z,96117.72
2018-11-14T09:02:16.178Z,96115.54
2018-11-14T09:04:46.428Z,96107.28
2018-11-14T09:07:16.901Z,96111.68
2018-11-14T09:09:47.079Z,96109.28
2018-11-14T09:12:17.385Z,96101.36
2018-11-14T09:14:48.059Z,96102.72
2018-11-14T09:17:18.208Z,96097.16
2018-11-14T09:19:48.226Z,96091.73
2018-11-14T09:22:18.223Z,96087.86
2018-11-14T09:24:49.198Z,96081.01
2018-11-14T09:27:19.407Z,96072.91
2018-11-14T09:29:49.597Z,96068.25
2018-11-14T09:32:19.681Z,96068.45
2018-11-14T09:34:50.522Z,96070.50
2018-11-14T09:37:20.670Z,96067.56
2018-11-14T09:39:50.734Z,96065.50
2018-11-14T09:42:20.663Z,96051.38
2018-11-14T09:44:51.830Z,96050.52
2018-11-14T09:47:22.010Z,96052.98
2018-11-14T09:49:52.163Z,96039.87
2018-11-14T09:52:22.201Z,96031.77
2018-11-14T09:54:52.830Z,96035.33
2018-11-14T09:57:23.037Z,96023.39
2018-11-14T09:59:53.118Z,96019.52
2018-11-14T10:02:23.198Z,96028.09
2018-11-14T10:04:54.355Z,96012.98
2018-11-14T10:07:24.588Z,96005.72
2018-11-14T10:09:54.927Z,95997.55
2018-11-14T10:12:25.083Z,95996.98
2018-11-14T10:14:57.141Z,95993.02
2018-11-14T10:17:27.184Z,95991.66
2018-11-14T10:19:57.299Z,95982.42
2018-11-14T10:22:27.362Z,95979.63
2018-11-14T10:24:58.699Z,95982.02
2018-11-14T10:27:28.819Z,95982.64
2018-11-14T10:29:58.970Z,95976.95
2018-11-14T10:32:28.900Z,95971.23
2018-11-14T10:35:00.391Z,95965.33
2018-11-14T10:37:30.617Z,95959.84
2018-11-14T10:40:00.844Z,95960.30
2018-11-14T10:42:30.824Z,95954.90
2018-11-14T10:45:02.659Z,95950.07
2018-11-14T10:47:32.758Z,95648.52
2018-11-14T10:50:02.951Z,95942.88
2018-11-14T10:52:32.928Z,95942.80
2018-11-14T10:55:03.026Z,95940.61
2018-11-14T10:57:33.088Z,95936.22
2018-11-14T11:00:03.168Z,95926.81
2018-11-14T11:02:38.068Z,95925.02
2018-11-14T11:05:13.339Z,95924.22
2018-11-14T11:07:48.616Z,95918.09
2018-11-14T11:10:23.737Z,95919.29
2018-11-14T11:12:58.755Z,95917.91
2018-11-14T11:16:33.003Z,95914.02
2018-11-14T11:19:03.083Z,95913.70
2018-11-14T11:21:33.328Z,95901.72
2018-11-14T11:24:05.862Z,95896.36
2018-11-14T11:26:36.826Z,95894.02
2018-11-14T11:29:11.487Z,95885.50
2018-11-14T11:31:41.512Z,95877.67
2018-11-14T11:34:12.604Z,95880.77
2018-11-14T11:36:43.020Z,95869.61
2018-11-14T11:39:16.198Z,95867.94
2018-11-14T11:41:46.910Z,95862.23
2018-11-14T11:44:17.679Z,95859.64
2018-11-14T11:46:47.665Z,95855.98
2018-11-14T11:49:17.731Z,95847.46
2018-11-14T11:51:47.772Z,95839.19
2018-11-14T11:54:18.515Z,95837.04
2018-11-14T11:56:48.695Z,95833.39
2018-11-14T11:59:18.937Z,95822.41
2018-11-14T12:01:48.966Z,95821.41
2018-11-14T12:04:19.122Z,95810.88
2018-11-14T12:06:49.153Z,95815.16
2018-11-14T12:09:19.281Z,95807.03
2018-11-14T12:11:49.656Z,95800.00
2018-11-14T12:14:20.479Z,95801.72
2018-11-14T12:16:50.507Z,95797.08
2018-11-14T12:19:20.547Z,95788.31
2018-11-14T12:21:50.806Z,95779.59
2018-11-14T12:24:21.601Z,95784.23
2018-11-14T12:26:51.748Z,95789.77
2018-11-14T12:29:21.837Z,95780.52
2018-11-14T12:31:51.868Z,95785.87
2018-11-14T12:34:21.936Z,95785.78
2018-11-14T12:36:52.208Z,95782.77
2018-11-14T12:39:22.366Z,95777.77
2018-11-14T12:41:52.399Z,95770.20
2018-11-14T12:44:22.524Z,95775.09
2018-11-14T12:46:52.436Z,95768.94
2018-11-14T12:49:22.469Z,95773.69
2018-11-14T12:51:52.586Z,95767.05
2018-11-14T12:54:23.690Z,95765.69
2018-11-14T12:56:53.649Z,95762.52
2018-11-14T12:59:23.942Z,95763.95
2018-11-14T13:01:54.120Z,95758.44
2018-11-14T13:04:24.898Z,95266.56
2018-11-14T13:06:54.850Z,95763.60
2018-11-14T13:09:25.078Z,95771.94
2018-11-14T13:11:55.599Z,95771.94
2018-11-14T13:14:26.317Z,95772.02
2018-11-14T13:16:56.375Z,95772.14
2018-11-14T13:19:26.486Z,95770.77
2018-11-14T13:21:56.579Z,95772.02
2018-11-14T13:24:27.659Z,95773.30
2018-11-14T13:26:57.799Z,95779.69
2018-11-14T13:29:27.839Z,95775.39
2018-11-14T13:31:57.778Z,95769.52
2018-11-14T13:34:28.194Z,95767.25
2018-11-14T13:36:58.293Z,95761.06
2018-11-14T13:39:28.276Z,95761.38
2018-11-14T13:41:58.390Z,95762.81
2018-11-14T13:44:28.855Z,95758.20
2018-11-14T13:46:58.857Z,95767.59
2018-11-14T13:49:29.029Z,95755.73
2018-11-14T13:51:59.053Z,95762.90
2018-11-14T13:54:29.453Z,95760.89
2018-11-14T13:56:59.471Z,95764.55
2018-11-14T13:59:29.957Z,95761.63
2018-11-14T14:01:59.997Z,95763.45
2018-11-14T14:04:31.125Z,95757.40
2018-11-14T14:07:01.356Z,95753.55
2018-11-14T14:09:31.715Z,95754.30
2018-11-14T14:12:02.431Z,95753.45
2018-11-14T14:14:33.203Z,95749.43
2018-11-14T14:17:03.436Z,95753.88
2018-11-14T14:19:33.660Z,95741.02
2018-11-14T14:22:03.830Z,95744.12
2018-11-14T14:24:34.029Z,95746.50
2018-11-14T14:27:04.112Z,95755.40
2018-11-14T14:29:34.228Z,95754.20
2018-11-14T14:32:04.505Z,95755.86
2018-11-14T14:34:35.460Z,95535.50
2018-11-14T14:37:05.608Z,95764.69
2018-11-14T14:39:35.746Z,95758.25
2018-11-14T14:42:06.310Z,95772.03
2018-11-14T14:44:36.667Z,95770.55
2018-11-14T14:47:07.261Z,95774.09
2018-11-14T14:49:37.292Z,95778.76
2018-11-14T14:52:07.348Z,95779.91
2018-11-14T14:54:37.297Z,95777.52
2018-11-14T14:57:07.806Z,95771.53
2018-11-14T14:59:37.975Z,95774.00
2018-11-14T15:02:08.537Z,95784.28
2018-11-14T15:04:40.106Z,95789.66
2018-11-14T15:07:10.287Z,95793.05
2018-11-14T15:09:40.465Z,95797.71
2018-11-14T15:12:11.156Z,95804.71
2018-11-14T15:14:42.153Z,95801.06
2018-11-14T15:17:12.227Z,95803.98
2018-11-14T15:19:42.331Z,95803.49
2018-11-14T15:22:12.370Z,95807.67
2018-11-14T15:24:42.666Z,95806.78
2018-11-14T15:27:12.843Z,95808.28
2018-11-14T15:29:43.048Z,95805.36
2018-11-14T15:32:13.120Z,95808.77
2018-11-14T15:34:44.060Z,95807.63
2018-11-14T15:37:14.331Z,95808.14
2018-11-14T15:39:44.783Z,95814.02
2018-11-14T15:42:14.935Z,95814.84
2018-11-14T15:44:45.515Z,95820.31
2018-11-14T15:47:15.983Z,95812.32
2018-11-14T15:49:46.303Z,95826.08
2018-11-14T15:52:16.296Z,95819.53
2018-11-14T15:54:47.136Z,95816.14
2018-11-14T15:57:17.323Z,95822.86
2018-11-14T15:59:47.498Z,95825.45
2018-11-14T16:02:17.581Z,95832.34
2018-11-14T16:04:48.678Z,95844.95
2018-11-14T16:07:18.784Z,95850.80
2018-11-14T16:09:49.074Z,95855.11
2018-11-14T16:12:19.407Z,95859.11
2018-11-14T16:14:50.327Z,95858.43
2018-11-14T16:17:20.468Z,95863.48
2018-11-14T16:19:51.796Z,95864.53
2018-11-14T16:22:21.914Z,95875.08
2018-11-14T16:24:52.154Z,95867.06
2018-11-14T16:27:22.333Z,95877.08
2018-11-14T16:29:52.674Z,95878.53
2018-11-14T16:32:23.775Z,95879.16
2018-11-14T16:34:53.958Z,95873.11
2018-11-14T16:37:23.947Z,95870.86
2018-11-14T16:39:54.101Z,95867.54
2018-11-14T16:42:24.142Z,95869.59
2018-11-14T16:44:54.560Z,95876.11
2018-11-14T16:47:24.705Z,95877.97
2018-11-14T16:49:54.857Z,95875.52
2018-11-14T16:52:25.010Z,95876.56
2018-11-14T16:54:56.023Z,95873.99
2018-11-14T16:57:26.411Z,95880.63
2018-11-14T16:59:56.415Z,95887.80
2018-11-14T17:02:26.577Z,95894.67
2018-11-14T17:04:56.592Z,95893.05
2018-11-14T17:07:26.833Z,95889.59
2018-11-14T17:09:57.080Z,95889.02
2018-11-14T17:12:27.476Z,95892.00
2018-11-14T17:14:58.659Z,95893.41
2018-11-14T17:17:28.763Z,95890.16
2018-11-14T17:19:58.900Z,95886.14
2018-11-14T17:22:29.106Z,95891.45
2018-11-14T17:25:00.346Z,95894.29
2018-11-14T17:27:30.489Z,95898.50
2018-11-14T17:30:00.587Z,95901.91
2018-11-14T17:32:30.790Z,95913.28
2018-11-14T17:35:01.164Z,95916.76
2018-11-14T17:37:31.240Z,95927.13
2018-11-14T17:40:01.293Z,95918.56
2018-11-14T17:42:31.488Z,95918.55
2018-11-14T17:45:02.065Z,95923.34
2018-11-14T17:47:32.246Z,95914.02
2018-11-14T17:50:02.297Z,95912.62
2018-11-14T17:52:32.371Z,95904.41
2018-11-14T17:55:03.255Z,95910.19
2018-11-14T17:57:33.381Z,95910.94
2018-11-14T18:00:03.578Z,95912.06
2018-11-14T18:02:33.624Z,95916.92
2018-11-14T18:05:04.797Z,95914.22
2018-11-14T18:07:34.858Z,95910.67
2018-11-14T18:10:05.785Z,95901.89
2018-11-14T18:12:36.257Z,95902.59
2018-11-14T18:15:07.484Z,95892.67
2018-11-14T18:17:38.387Z,95891.65
2018-11-14T18:20:11.506Z,95901.03
2018-11-14T18:22:42.118Z,95900.45
2018-11-14T18:25:13.150Z,95905.26
2018-11-14T18:27:43.228Z,95903.30
2018-11-14T18:30:24.433Z,95903.70
2018-11-14T18:32:55.491Z,95895.02
2018-11-14T18:35:26.660Z,95894.83
2018-11-14T18:37:57.737Z,95892.64
2018-11-14T18:40:29.465Z,95899.52
2018-11-14T18:42:59.540Z,95897.86
2018-11-14T18:45:36.028Z,95897.86
2018-11-14T18:48:07.034Z,95892.03
2018-11-14T18:50:37.125Z,95889.23
2018-11-14T18:53:07.208Z,95893.96
2018-11-14T18:55:38.352Z,95884.76
2018-11-14T18:58:08.484Z,95895.94
2018-11-14T19:00:38.460Z,95902.25
2018-11-14T19:03:08.541Z,95914.53
2018-11-14T19:05:39.876Z,95914.73
2018-11-14T19:08:09.867Z,95913.25
2018-11-14T19:10:40.204Z,95919.07
2018-11-14T19:13:10.660Z,95920.55
2018-11-14T19:15:41.829Z,95911.98
2018-11-14T19:18:11.837Z,95916.27
2018-11-14T19:20:41.980Z,95923.36
2018-11-14T19:23:12.081Z,95919.14
2018-11-14T19:25:42.062Z,95915.19
2018-11-14T19:28:12.396Z,95921.28
2018-11-14T19:30:42.635Z,95914.29
2018-11-14T19:33:12.678Z,95921.68
2018-11-14T19:35:42.925Z,95924.19
2018-11-14T19:38:12.984Z,95926.88
2018-11-14T19:40:43.028Z,95925.54
2018-11-14T19:43:13.315Z,95924.22
2018-11-14T19:45:44.388Z,95926.32
2018-11-14T19:48:14.460Z,95924.97
2018-11-14T19:50:44.461Z,95930.27
2018-11-14T19:53:15.169Z,95929.48
2018-11-14T19:55:46.082Z,95936.38
2018-11-14T19:58:16.200Z,95957.72
2018-11-14T20:00:46.446Z,95936.17
2018-11-14T20:03:16.406Z,95938.03
2018-11-14T20:05:47.417Z,95933.53
2018-11-14T20:08:17.470Z,95934.86
2018-11-14T20:10:47.925Z,95933.78
2018-11-14T20:13:18.328Z,95940.42
2018-11-14T20:15:48.936Z,95942.30
2018-11-14T20:18:18.928Z,95944.45
2018-11-14T20:20:49.011Z,95938.31
2018-11-14T20:23:19.141Z,95945.24
2018-11-14T20:25:49.849Z,95946.82
2018-11-14T20:28:19.970Z,95948.15
2018-11-14T20:30:50.140Z,95949.48
2018-11-14T20:33:20.425Z,95942.83
2018-11-14T20:35:51.710Z,95940.41
2018-11-14T20:38:21.873Z,95935.86
2018-11-14T20:40:52.009Z,95930.56
2018-11-14T20:43:22.071Z,95925.25
2018-11-14T20:45:52.485Z,95919.05
2018-11-14T20:48:22.620Z,95916.21
2018-11-14T20:50:52.635Z,95924.48
2018-11-14T20:53:22.605Z,95928.45
2018-11-14T20:55:53.983Z,95928.41
2018-11-14T20:58:23.971Z,95932.47
2018-11-14T21:00:54.054Z,95930.63
2018-11-14T21:03:24.324Z,95925.30
2018-11-14T21:05:54.598Z,95922.89
2018-11-14T21:08:24.657Z,95918.66
2018-11-14T21:10:54.878Z,95919.45
2018-11-14T21:13:25.196Z,95904.55
2018-11-14T21:15:55.547Z,95907.14
2018-11-14T21:18:25.602Z,95911.98
2018-11-14T21:20:55.641Z,95913.87
2018-11-14T21:23:25.607Z,95916.23
2018-11-14T21:25:56.296Z,95920.23
2018-11-14T21:28:26.291Z,95917.84
2018-11-14T21:30:56.332Z,95913.86
2018-11-14T21:33:26.262Z,95911.73
2018-11-14T21:35:57.551Z,95919.16
2018-11-14T21:38:27.587Z,95912.52
2018-11-14T21:40:57.571Z,95911.45
2018-11-14T21:43:27.608Z,95917.16
2018-11-14T21:45:58.861Z,95916.01
2018-11-14T21:48:28.934Z,95914.44
2018-11-14T21:50:59.027Z,95911.08
2018-11-14T21:53:29.042Z,95912.15
2018-11-14T21:55:59.288Z,95914.61
2018-11-14T21:58:29.287Z,95911.23
2018-11-14T22:00:59.413Z,95909.43
2018-11-14T22:03:29.581Z,95911.12
2018-11-14T22:06:00.403Z,95905.56
2018-11-14T22:08:30.475Z,95905.06
2018-11-14T22:11:00.905Z,95902.67
2018-11-14T22:13:31.280Z,95892.58
2018-11-14T22:16:02.134Z,95886.19
2018-11-14T22:18:32.103Z,95887.77
2018-11-14T22:21:02.367Z,95896.02
2018-11-14T22:23:32.442Z,95899.73
2018-11-14T22:26:03.029Z,95890.98
2018-11-14T22:28:33.089Z,95894.95
2018-11-14T22:31:03.155Z,95889.92
2018-11-14T22:33:33.107Z,95897.09
2018-11-14T22:36:03.750Z,95893.92
2018-11-14T22:38:33.907Z,95886.76
2018-11-14T22:41:03.952Z,95890.22
2018-11-14T22:43:33.977Z,95886.76
2018-11-14T22:46:04.648Z,95883.58
2018-11-14T22:48:34.641Z,95885.43
2018-11-14T22:51:04.771Z,95881.44
2018-11-14T22:53:34.858Z,95879.03
2018-11-14T22:56:05.384Z,95875.60
2018-11-14T22:58:35.491Z,95877.70
2018-11-14T23:01:05.625Z,95880.64
2018-11-14T23:03:35.727Z,95877.45
2018-11-14T23:06:06.745Z,95875.84
2018-11-14T23:08:36.822Z,95879.31
2018-11-14T23:11:07.170Z,95885.94
2018-11-14T23:13:37.625Z,95883.82
2018-11-14T23:16:08.196Z,95885.42
2018-11-14T23:18:38.270Z,95882.47
2018-11-14T23:21:08.320Z,95877.66
2018-11-14T23:23:38.207Z,95867.60
2018-11-14T23:26:08.836Z,95871.04
2018-11-14T23:28:38.857Z,95870.27
2018-11-14T23:31:08.983Z,95859.63
2018-11-14T23:33:39.054Z,95863.87
2018-11-14T23:36:09.554Z,95863.33
2018-11-14T23:38:39.591Z,95860.39
2018-11-14T23:41:09.643Z,95858.53
2018-11-14T23:43:39.875Z,95861.47
2018-11-14T23:46:09.890Z,95860.88
2018-11-14T23:48:39.870Z,95866.55
2018-11-14T23:51:09.935Z,95861.03
2018-11-14T23:53:40.157Z,95856.81
2018-11-14T23:56:10.542Z,95850.48
2018-11-14T23:58:40.554Z,95852.07
